CSB weather

Caransebeş Airport
Caransebeş, Caras-Severin, Romania

Public forecast

Using degrees Celsius for public forecast. Weather courtesy of forecast.io.

Closest aviation weather report (METAR) to Caransebeş Airport

Closest report is Vršac International Airport, 43.1 nm (79.8 km) WSW. Retrieved 2019/11/22 01:30 UTC (0 seconds ago):

LYVR 220130Z AUTO 14027G46KT CAVOK 11/03 Q1015

Closest aviation forecast (TAF) to Caransebeş Airport

Closest forecast is Vršac International Airport, 43.1 nm (79.8 km) WSW. Retrieved 2019-11-22 00:00 UTC (1 hour ago):

TAF LYVR 212300Z 2200/2224 14020G40KT CAVOK TX12/2212Z TN06/2224Z TEMPO 2203/2220 14028G50KT TEMPO 2213/2215 RA